Time;durP1;ratioP1;P1;durP2;ratioP2;P2;SDS_P1;SDS_P2;PMS_P1;PMS_P2;Temp;Humidity;BMP_temperature;BMP_pressure;BME280_temperature;BME280_humidity;BME280_pressure;Samples;Min_cycle;Max_cycle;Signal;HPM_P1;HPM_P2
2022/02/21 00:02:09;;;;;;;19.63;16.23;;;;;;;5.94;100.00;94924.81;4994994;28;20069;-81
2022/02/21 00:04:35;;;;;;;21.80;16.55;;;;;;;5.84;100.00;94925.63;5011107;28;20074;-81
2022/02/21 00:07:01;;;;;;;18.77;14.15;;;;;;;6.17;100.00;94938.88;5009048;28;20038;-80
2022/02/21 00:09:26;;;;;;;18.08;14.60;;;;;;;6.14;100.00;94928.88;4997080;28;20030;-81
2022/02/21 00:11:51;;;;;;;18.63;14.70;;;;;;;6.10;100.00;94932.72;4994752;28;20041;-81
2022/02/21 00:14:17;;;;;;;19.67;15.48;;;;;;;6.07;100.00;94927.88;4990875;28;20137;-80
2022/02/21 00:16:42;;;;;;;19.13;15.70;;;;;;;6.07;100.00;94933.00;4991068;28;20034;-81
2022/02/21 00:19:08;;;;;;;17.55;15.50;;;;;;;6.07;100.00;94933.00;4990482;28;20026;-80
2022/02/21 00:21:33;;;;;;;15.65;14.05;;;;;;;6.16;100.00;94932.16;5010447;28;20033;-81
2022/02/21 00:23:59;;;;;;;22.70;15.75;;;;;;;6.23;100.00;94920.31;5012110;28;20026;-80
2022/02/21 00:26:24;;;;;;;17.35;14.98;;;;;;;6.27;100.00;94909.59;5005922;28;20046;-81
2022/02/21 00:28:50;;;;;;;23.50;15.88;;;;;;;6.15;100.00;94909.94;5008464;28;20031;-81
2022/02/21 00:31:15;;;;;;;21.02;16.60;;;;;;;5.91;100.00;94907.13;5010125;28;20045;-82
2022/02/21 00:33:41;;;;;;;18.98;15.13;;;;;;;5.89;100.00;94906.44;4993994;28;20482;-81
2022/02/21 00:36:07;;;;;;;21.83;15.70;;;;;;;5.96;100.00;94915.19;4994162;28;20034;-81
2022/02/21 00:38:33;;;;;;;18.70;16.02;;;;;;;5.93;100.00;94907.78;4992859;28;20038;-81
2022/02/21 00:40:58;;;;;;;17.40;14.80;;;;;;;5.95;100.00;94893.81;4997073;28;20022;-81
2022/02/21 00:43:24;;;;;;;22.67;16.02;;;;;;;5.82;100.00;94891.56;5012571;28;20028;-81
2022/02/21 00:45:49;;;;;;;20.40;16.33;;;;;;;5.83;100.00;94895.78;4997676;28;20026;-81
2022/02/21 00:48:15;;;;;;;25.83;16.92;;;;;;;5.66;100.00;94895.69;4996515;28;20043;-81
2022/02/21 00:50:41;;;;;;;21.92;17.17;;;;;;;5.77;100.00;94903.25;5013434;28;20030;-81
2022/02/21 00:53:06;;;;;;;22.20;16.08;;;;;;;5.58;100.00;94896.44;4997361;28;20045;-81
2022/02/21 00:55:34;;;;;;;19.45;15.98;;;;;;;5.36;100.00;94901.13;5013284;28;20022;-81
2022/02/21 00:58:03;;;;;;;20.50;14.77;;;;;;;5.38;100.00;94905.16;4996564;28;20038;-81
2022/02/21 01:00:29;;;;;;;23.23;18.23;;;;;;;5.39;100.00;94904.22;4996733;28;20046;-81
2022/02/21 01:02:55;;;;;;;24.02;17.77;;;;;;;5.33;100.00;94915.00;4994274;28;20154;-81
2022/02/21 01:05:21;;;;;;;17.70;15.18;;;;;;;5.50;100.00;94919.44;5008044;28;20081;-80
2022/02/21 01:07:46;;;;;;;20.48;17.10;;;;;;;5.53;100.00;94908.88;4995370;28;20022;-80
2022/02/21 01:10:12;;;;;;;17.95;15.00;;;;;;;5.43;100.00;94912.41;5015342;28;20026;-82
2022/02/21 01:12:37;;;;;;;19.60;16.83;;;;;;;5.09;100.00;94902.66;5018917;28;20033;-80
2022/02/21 01:15:07;;;;;;;21.23;18.63;;;;;;;5.17;100.00;94905.34;5001195;28;20041;-82
2022/02/21 01:17:32;;;;;;;21.95;16.42;;;;;;;5.23;100.00;94907.34;5017341;28;20032;-82
2022/02/21 01:19:59;;;;;;;24.40;17.02;;;;;;;5.25;100.00;94904.66;5015995;28;20038;-82
2022/02/21 01:22:25;;;;;;;23.15;17.65;;;;;;;5.29;100.00;94913.69;5016073;28;20053;-81
2022/02/21 01:24:50;;;;;;;22.67;17.05;;;;;;;5.20;100.00;94904.28;5016326;28;20023;-82
2022/02/21 01:27:16;;;;;;;18.52;16.15;;;;;;;5.07;100.00;94906.31;5000851;28;20006;-82
2022/02/21 01:29:42;;;;;;;20.23;16.48;;;;;;;5.10;100.00;94896.59;4999967;28;20026;-82
2022/02/21 01:32:09;;;;;;;24.00;20.70;;;;;;;4.97;100.00;94900.41;5016615;28;20027;-82
2022/02/21 01:34:35;;;;;;;25.13;19.02;;;;;;;4.90;100.00;94907.03;5000990;28;20049;-82
2022/02/21 01:37:00;;;;;;;19.75;16.25;;;;;;;5.06;100.00;94905.50;5000694;28;20034;-82
2022/02/21 01:39:26;;;;;;;22.85;17.15;;;;;;;5.09;100.00;94907.00;5015792;28;20023;-82
2022/02/21 01:41:51;;;;;;;21.98;17.67;;;;;;;5.10;100.00;94906.06;5015613;28;20038;-81
2022/02/21 01:44:17;;;;;;;24.83;19.65;;;;;;;4.93;100.00;94892.16;5015672;28;20053;-81
2022/02/21 01:46:44;;;;;;;21.27;16.88;;;;;;;4.82;100.00;94887.19;5016189;28;20042;-81
2022/02/21 01:49:11;;;;;;;21.85;16.27;;;;;;;4.62;100.00;94888.16;5016942;28;20035;-82
2022/02/21 01:51:37;;;;;;;26.52;18.08;;;;;;;4.48;100.00;94893.69;5016308;28;20026;-82
2022/02/21 01:54:07;;;;;;;24.05;17.65;;;;;;;4.52;100.00;94893.31;5000146;28;20026;-82
2022/02/21 01:56:34;;;;;;;26.73;19.67;;;;;;;4.48;100.00;94903.94;5016970;28;20011;-82
2022/02/21 01:58:59;;;;;;;22.65;18.85;;;;;;;4.42;100.00;94900.19;5016591;28;20094;-82
2022/02/21 02:01:25;;;;;;;24.10;20.25;;;;;;;4.32;100.00;94888.28;5015835;28;20034;-81
2022/02/21 02:03:50;;;;;;;32.30;20.30;;;;;;;4.14;100.00;94883.03;5016063;28;20041;-80
2022/02/21 02:06:16;;;;;;;23.50;18.63;;;;;;;4.03;100.00;94878.84;5016376;28;20054;-82
2022/02/21 02:08:42;;;;;;;21.27;16.88;;;;;;;4.18;100.00;94879.25;4999183;28;20036;-81
2022/02/21 02:11:07;;;;;;;23.15;17.75;;;;;;;4.12;100.00;94872.09;5016272;28;20030;-82
2022/02/21 02:13:33;;;;;;;21.67;16.08;;;;;;;4.05;100.00;94871.00;4999684;28;20434;-81
2022/02/21 02:15:58;;;;;;;25.55;20.02;;;;;;;3.92;100.00;94853.34;5015167;28;20046;-82
2022/02/21 02:18:24;;;;;;;24.85;21.00;;;;;;;3.66;100.00;94844.56;5015670;28;20460;-82
2022/02/21 02:20:49;;;;;;;30.02;25.35;;;;;;;3.86;100.00;94861.56;5015295;28;20019;-81
2022/02/21 02:23:15;;;;;;;47.40;30.08;;;;;;;3.75;100.00;94858.31;5016061;28;20119;-82
2022/02/21 02:25:42;;;;;;;38.60;27.63;;;;;;;3.37;100.00;94839.31;5015537;28;20099;-83
2022/02/21 02:28:08;;;;;;;24.55;20.15;;;;;;;3.42;100.00;94837.22;5014623;28;20034;-82
2022/02/21 02:30:34;;;;;;;31.08;21.48;;;;;;;3.43;100.00;94841.41;4999934;28;20044;-82
2022/02/21 02:32:59;;;;;;;21.40;17.10;;;;;;;3.53;100.00;94836.31;5016496;28;20031;-82
2022/02/21 02:35:32;;;;;;;18.90;15.73;;;;;;;3.39;100.00;94828.97;5015952;28;20057;-82
2022/02/21 02:37:57;;;;;;;22.50;17.75;;;;;;;3.42;100.00;94826.97;5000075;28;20038;-81
2022/02/21 02:40:23;;;;;;;20.85;16.38;;;;;;;3.38;100.00;94828.16;5016462;28;20042;-82
2022/02/21 02:42:48;;;;;;;31.25;21.10;;;;;;;3.39;100.00;94834.09;4998887;28;20183;-81
2022/02/21 02:45:14;;;;;;;33.60;23.58;;;;;;;3.29;100.00;94834.06;5016477;28;20030;-82
2022/02/21 02:47:39;;;;;;;29.52;21.63;;;;;;;3.18;100.00;94823.91;5012505;28;20037;-81
2022/02/21 02:50:06;;;;;;;23.77;17.98;;;;;;;3.15;100.00;94827.53;4998998;28;20053;-82
2022/02/21 02:52:31;;;;;;;23.27;17.58;;;;;;;2.73;100.00;94797.09;5015186;28;20027;-82
2022/02/21 02:54:57;;;;;;;21.13;15.90;;;;;;;2.80;100.00;94816.09;4998185;28;20041;-82
2022/02/21 02:57:23;;;;;;;19.70;14.93;;;;;;;2.79;100.00;94819.59;5014616;28;20091;-82
2022/02/21 02:59:48;;;;;;;32.50;24.05;;;;;;;2.81;100.00;94817.72;5014839;28;20010;-83
2022/02/21 03:02:13;;;;;;;27.88;23.83;;;;;;;2.67;100.00;94814.53;4998882;28;20046;-82
2022/02/21 03:04:39;;;;;;;21.70;15.57;;;;;;;2.72;100.00;94798.84;5014466;28;20043;-81
2022/02/21 03:07:04;;;;;;;22.85;18.02;;;;;;;2.69;100.00;94804.22;5014840;28;20019;-83
2022/02/21 03:09:30;;;;;;;16.42;13.50;;;;;;;2.59;100.00;94801.59;4998152;28;20036;-81
2022/02/21 03:11:56;;;;;;;22.00;14.95;;;;;;;2.61;100.00;94796.34;5016064;28;20023;-84
2022/02/21 03:14:22;;;;;;;18.45;16.48;;;;;;;2.27;100.00;94772.78;5015262;28;20342;-84
2022/02/21 03:16:48;;;;;;;17.13;13.48;;;;;;;2.41;100.00;94805.66;4997749;28;20030;-83
2022/02/21 03:19:13;;;;;;;18.40;14.00;;;;;;;2.41;100.00;94797.97;5014596;28;20013;-82
2022/02/21 03:21:39;;;;;;;15.45;13.82;;;;;;;2.32;100.00;94803.84;5015393;28;20026;-83
2022/02/21 03:24:04;;;;;;;21.67;13.98;;;;;;;2.30;100.00;94798.06;5015149;28;20046;-83
2022/02/21 03:26:30;;;;;;;20.48;16.17;;;;;;;2.10;100.00;94798.84;5014309;28;20030;-82
2022/02/21 03:28:55;;;;;;;18.73;14.95;;;;;;;2.20;100.00;94788.72;4996667;28;20029;-82
2022/02/21 03:31:21;;;;;;;18.05;14.23;;;;;;;2.19;100.00;94779.41;5014117;28;20019;-82
2022/02/21 03:33:46;;;;;;;17.98;14.98;;;;;;;2.38;100.00;94789.75;4996804;28;20022;-81
2022/02/21 03:36:12;;;;;;;25.17;17.13;;;;;;;2.13;100.00;94783.28;4998062;28;20027;-82
2022/02/21 03:38:37;;;;;;;15.57;12.80;;;;;;;2.00;100.00;94785.22;4996808;28;20045;-82
2022/02/21 03:41:03;;;;;;;17.73;13.05;;;;;;;2.17;100.00;94777.00;5013992;28;20034;-83
2022/02/21 03:43:28;;;;;;;19.08;13.68;;;;;;;2.07;100.00;94774.38;4999278;28;20045;-83
2022/02/21 03:45:54;;;;;;;15.77;12.50;;;;;;;2.13;100.00;94773.06;5015464;28;20038;-83
2022/02/21 03:48:19;;;;;;;16.85;13.75;;;;;;;2.07;100.00;94763.34;4999152;28;20041;-84
2022/02/21 03:50:45;;;;;;;22.70;17.98;;;;;;;2.28;100.00;94786.34;5014563;28;20011;-83
2022/02/21 03:53:10;;;;;;;22.55;16.80;;;;;;;2.02;100.00;94786.69;5013170;28;20113;-81
2022/02/21 03:55:36;;;;;;;19.55;14.98;;;;;;;1.94;100.00;94783.16;4996777;28;20030;-82
2022/02/21 03:58:01;;;;;;;17.50;14.35;;;;;;;1.88;100.00;94774.25;5012131;28;20030;-81
2022/02/21 04:00:26;;;;;;;15.15;13.40;;;;;;;2.06;100.00;94779.59;4993620;28;20077;-81
2022/02/21 04:02:53;;;;;;;18.52;13.27;;;;;;;2.04;100.00;94776.38;4990261;28;20041;-80
2022/02/21 04:05:18;;;;;;;19.02;14.35;;;;;;;2.06;100.00;94771.94;4996108;28;20026;-78
2022/02/21 04:07:44;;;;;;;28.38;19.38;;;;;;;2.20;100.00;94776.75;5004475;28;20042;-80
2022/02/21 04:10:14;;;;;;;25.27;18.73;;;;;;;2.10;100.00;94763.91;5012690;28;20034;-81
2022/02/21 04:12:39;;;;;;;25.48;18.92;;;;;;;2.19;100.00;94775.13;4995658;28;20034;-80
2022/02/21 04:15:06;;;;;;;21.23;15.23;;;;;;;2.25;100.00;94779.72;5013570;28;20031;-82
2022/02/21 04:17:43;;;;;;;27.80;18.88;;;;;;;1.93;100.00;94776.41;5016381;28;20036;-82
2022/02/21 04:20:11;;;;;;;28.00;20.48;;;;;;;1.92;100.00;94764.59;5013832;28;20026;-81
2022/02/21 04:22:37;;;;;;;25.77;19.60;;;;;;;2.07;100.00;94758.25;5015668;28;20026;-81
2022/02/21 04:25:06;;;;;;;29.65;20.27;;;;;;;2.09;100.00;94756.38;5011861;28;20033;-79
2022/02/21 04:27:46;;;;;;;23.42;17.13;;;;;;;2.10;100.00;94766.47;5013699;28;20026;-80
2022/02/21 04:30:13;;;;;;;57.42;34.90;;;;;;;2.02;100.00;94755.28;4986114;28;20093;-80
2022/02/21 04:32:39;;;;;;;55.75;34.28;;;;;;;2.08;100.00;94759.88;5001128;28;20034;-79
2022/02/21 04:35:06;;;;;;;38.20;26.92;;;;;;;1.95;100.00;94739.63;4987554;28;20029;-80
2022/02/21 04:37:31;;;;;;;42.90;31.33;;;;;;;2.00;100.00;94747.72;4999250;28;20026;-82
2022/02/21 04:39:57;;;;;;;44.72;34.50;;;;;;;1.97;100.00;94729.28;4993771;28;20033;-80
2022/02/21 04:42:23;;;;;;;39.25;32.22;;;;;;;2.05;100.00;94735.41;5006772;28;20036;-80
2022/02/21 04:44:48;;;;;;;34.70;28.38;;;;;;;2.02;100.00;94742.50;4987062;28;20572;-79
2022/02/21 04:47:14;;;;;;;40.38;30.33;;;;;;;2.02;100.00;94747.63;5003697;28;20037;-80
2022/02/21 04:49:39;;;;;;;32.28;25.45;;;;;;;2.13;100.00;94744.97;5007309;28;20045;-80
2022/02/21 04:52:05;;;;;;;51.38;32.25;;;;;;;1.94;100.00;94737.19;5003837;28;20022;-78
2022/02/21 04:54:31;;;;;;;56.63;33.83;;;;;;;2.14;100.00;94736.41;5000560;28;20056;-80
2022/02/21 04:56:57;;;;;;;49.85;32.38;;;;;;;2.09;100.00;94731.66;5002831;28;20023;-79
2022/02/21 04:59:22;;;;;;;57.08;35.30;;;;;;;2.13;100.00;94732.22;5006909;28;20567;-81
2022/02/21 05:01:48;;;;;;;47.70;31.65;;;;;;;2.10;100.00;94727.34;4992158;28;20065;-80
2022/02/21 05:04:13;;;;;;;71.22;40.47;;;;;;;2.20;100.00;94717.19;5008375;28;20034;-80
2022/02/21 05:06:39;;;;;;;86.05;44.92;;;;;;;2.28;100.00;94713.06;4995149;28;20026;-82
2022/02/21 05:09:04;;;;;;;79.35;47.00;;;;;;;2.24;100.00;94704.06;5016038;28;20063;-80
2022/02/21 05:11:30;;;;;;;73.50;43.88;;;;;;;2.24;100.00;94708.34;4999679;28;20094;-81
2022/02/21 05:13:55;;;;;;;48.35;29.85;;;;;;;2.36;100.00;94703.03;5011776;28;20063;-81
2022/02/21 05:16:21;;;;;;;42.15;28.88;;;;;;;2.32;100.00;94699.13;4992254;28;20065;-82
2022/02/21 05:18:46;;;;;;;43.85;26.67;;;;;;;2.33;100.00;94705.84;4994375;28;20065;-80
2022/02/21 05:21:12;;;;;;;29.90;18.95;;;;;;;2.27;100.00;94701.25;5013449;28;20081;-81
2022/02/21 05:23:37;;;;;;;42.85;27.95;;;;;;;2.18;100.00;94712.22;5011089;28;20049;-81
2022/02/21 05:26:02;;;;;;;48.58;34.40;;;;;;;2.22;100.00;94707.66;5011677;28;20096;-81
2022/02/21 05:28:28;;;;;;;38.30;26.55;;;;;;;1.92;100.00;94716.09;4997110;28;20106;-81
2022/02/21 05:30:54;;;;;;;27.00;19.40;;;;;;;2.06;100.00;94715.78;4996246;28;20093;-81
2022/02/21 05:33:20;;;;;;;21.05;16.23;;;;;;;2.17;100.00;94718.28;4993664;28;20068;-80
2022/02/21 05:35:46;;;;;;;30.40;21.08;;;;;;;2.11;100.00;94724.69;4993093;28;20026;-82
2022/02/21 05:38:11;;;;;;;28.10;19.23;;;;;;;2.04;100.00;94717.66;4997616;28;20037;-79
2022/02/21 05:40:37;;;;;;;29.13;19.92;;;;;;;1.76;100.00;94703.78;5011117;28;20018;-81
2022/02/21 05:43:03;;;;;;;30.95;19.85;;;;;;;1.87;100.00;94713.09;4997350;28;20022;-81
2022/02/21 05:45:28;;;;;;;22.92;16.63;;;;;;;2.27;100.00;94716.56;5012629;28;20049;-80
2022/02/21 05:47:53;;;;;;;21.25;15.85;;;;;;;2.38;100.00;94706.25;4998183;28;20094;-81
2022/02/21 05:50:19;;;;;;;20.40;16.73;;;;;;;2.45;100.00;94707.38;4997386;28;20095;-81
2022/02/21 05:52:44;;;;;;;32.72;23.85;;;;;;;2.46;100.00;94683.44;5014426;28;20037;-81
2022/02/21 05:55:10;;;;;;;21.58;17.10;;;;;;;2.40;100.00;94683.97;5011665;28;20117;-82
2022/02/21 05:57:35;;;;;;;15.93;14.20;;;;;;;2.77;100.00;94681.66;5014412;28;20033;-81
2022/02/21 06:00:02;;;;;;;22.92;14.52;;;;;;;2.95;100.00;94689.53;5010725;28;20034;-81
2022/02/21 06:02:28;;;;;;;16.92;14.80;;;;;;;3.24;100.00;94667.38;5012167;28;20031;-81
2022/02/21 06:04:54;;;;;;;23.70;18.35;;;;;;;3.56;100.00;94657.63;5013468;28;20053;-80
2022/02/21 06:07:19;;;;;;;58.70;41.13;;;;;;;3.60;100.00;94643.63;5015104;28;20038;-82
2022/02/21 06:12:20;;;;;;;14.13;12.60;;;;;;;10.17;93.43;94556.03;5218715;23;20448;-83
2022/02/21 06:14:45;;;;;;;13.82;12.27;;;;;;;11.54;77.00;94551.59;4989019;28;20037;-83
2022/02/21 06:17:11;;;;;;;11.85;10.77;;;;;;;12.03;66.71;94549.03;4990647;28;20031;-84
2022/02/21 06:19:36;;;;;;;15.07;12.20;;;;;;;10.35;74.62;94544.31;4989380;28;20505;-83
2022/02/21 06:22:02;;;;;;;15.60;14.05;;;;;;;9.46;81.42;94544.38;4988467;28;20077;-86
2022/02/21 06:24:28;;;;;;;18.02;16.27;;;;;;;9.60;81.83;94535.81;4990262;28;20022;-85
2022/02/21 06:26:53;;;;;;;27.90;23.95;;;;;;;11.47;73.36;94532.59;4988986;28;20432;-83
2022/02/21 06:29:20;;;;;;;15.80;14.25;;;;;;;12.14;68.31;94533.72;4990243;28;20022;-84
2022/02/21 06:31:46;;;;;;;13.05;11.85;;;;;;;12.71;64.08;94532.63;4971480;28;20555;-84
2022/02/21 06:34:11;;;;;;;15.57;14.05;;;;;;;11.84;69.45;94534.13;4973007;28;20018;-81
2022/02/21 06:36:37;;;;;;;15.93;14.40;;;;;;;12.92;63.92;94535.09;4988722;28;20088;-82
2022/02/21 06:39:02;;;;;;;13.75;12.43;;;;;;;10.42;70.78;94529.69;4987589;28;20077;-84
2022/02/21 06:41:28;;;;;;;11.85;10.88;;;;;;;13.15;63.63;94521.78;4972201;28;20018;-82
2022/02/21 06:43:53;;;;;;;18.05;16.23;;;;;;;11.17;71.95;94526.75;4989045;28;20030;-83
2022/02/21 06:46:19;;;;;;;15.32;14.05;;;;;;;13.87;62.27;94521.81;4990226;28;20049;-82
2022/02/21 06:48:44;;;;;;;16.60;15.05;;;;;;;11.35;68.09;94524.50;4988166;28;20105;-85
2022/02/21 06:51:10;;;;;;;12.75;11.38;;;;;;;13.08;64.74;94519.16;4987089;28;20065;-82
2022/02/21 06:53:36;;;;;;;11.45;10.45;;;;;;;11.84;65.41;94523.75;4981217;28;20042;-84
2022/02/21 06:56:01;;;;;;;11.20;10.20;;;;;;;14.97;56.79;94507.91;4969498;28;20023;-81
2022/02/21 06:58:27;;;;;;;11.02;9.93;;;;;;;16.13;52.45;94504.69;4948373;28;20134;-81
2022/02/21 07:00:53;;;;;;;11.25;10.35;;;;;;;16.52;53.07;94511.34;4964558;28;20085;-81
2022/02/21 07:03:18;;;;;;;10.77;9.70;;;;;;;17.15;49.40;94503.16;4965238;28;20027;-81
2022/02/21 07:05:43;;;;;;;8.57;7.88;;;;;;;16.69;52.73;94490.66;4963577;28;20106;-81
2022/02/21 07:08:10;;;;;;;7.22;6.72;;;;;;;17.92;49.79;94485.72;4981629;28;20424;-83
2022/02/21 07:10:36;;;;;;;8.73;8.02;;;;;;;19.06;46.51;94480.53;4981726;28;20030;-81
2022/02/21 07:13:02;;;;;;;7.55;6.85;;;;;;;19.21;45.66;94487.88;4979985;28;20523;-80
2022/02/21 07:15:27;;;;;;;6.07;5.57;;;;;;;20.02;43.30;94471.66;4981947;28;20080;-80
2022/02/21 07:17:52;;;;;;;5.88;5.38;;;;;;;17.30;48.69;94475.56;4983056;28;20030;-81
2022/02/21 07:20:18;;;;;;;5.55;5.05;;;;;;;16.08;52.39;94473.22;4984591;28;20089;-81
2022/02/21 07:22:46;;;;;;;6.10;5.60;;;;;;;19.80;44.97;94471.59;4983019;28;20393;-80
2022/02/21 07:25:13;;;;;;;4.47;4.18;;;;;;;16.86;48.00;94470.72;4985235;28;20420;-80
2022/02/21 07:27:46;;;;;;;4.85;4.45;;;;;;;19.61;44.81;94451.06;4981008;28;20124;-80
2022/02/21 07:30:13;;;;;;;4.50;4.20;;;;;;;19.72;44.93;94456.22;4983501;28;20118;-79
2022/02/21 07:32:40;;;;;;;5.55;5.05;;;;;;;17.75;46.68;94460.19;4981115;28;20030;-80
2022/02/21 07:35:06;;;;;;;5.63;5.07;;;;;;;17.33;48.58;94459.41;4983962;28;20030;-79
2022/02/21 07:37:32;;;;;;;4.88;4.47;;;;;;;18.81;46.13;94459.88;4984053;28;20133;-80
2022/02/21 07:39:57;;;;;;;5.10;4.68;;;;;;;20.07;43.60;94460.44;4982980;28;20118;-81
2022/02/21 07:42:23;;;;;;;5.28;4.78;;;;;;;20.71;42.10;94459.72;4975851;28;20503;-80
2022/02/21 07:44:50;;;;;;;6.00;5.53;;;;;;;17.30;46.08;94457.25;4972875;28;20032;-83
2022/02/21 07:47:17;;;;;;;5.60;5.18;;;;;;;17.47;47.71;94449.50;4982212;28;20512;-83
2022/02/21 07:49:42;;;;;;;5.13;4.50;;;;;;;20.07;43.54;94445.44;4976363;28;20026;-84
2022/02/21 07:52:08;;;;;;;4.43;4.10;;;;;;;21.13;40.29;94430.22;4972753;28;20077;-83
2022/02/21 07:54:34;;;;;;;4.13;3.80;;;;;;;18.61;45.24;94432.41;4962092;28;20081;-89
2022/02/21 07:57:01;;;;;;;4.53;4.18;;;;;;;20.78;42.35;94430.56;4976541;28;20031;-84
2022/02/21 07:59:27;;;;;;;3.60;3.30;;;;;;;18.20;46.47;94418.47;4974619;28;20042;-81
2022/02/21 08:01:52;;;;;;;3.40;3.10;;;;;;;17.68;48.21;94422.03;4982321;28;20053;-83
2022/02/21 08:04:18;;;;;;;3.83;3.42;;;;;;;15.06;56.56;94418.78;4982778;28;20493;-80
2022/02/21 08:06:43;;;;;;;3.75;3.42;;;;;;;14.69;59.92;94415.22;4970831;28;20033;-83
2022/02/21 08:09:09;;;;;;;3.47;3.17;;;;;;;14.28;59.90;94404.38;4966081;28;20042;-83
2022/02/21 08:11:34;;;;;;;2.00;1.90;;;;;;;14.69;59.44;94390.97;4966309;28;20512;-82
2022/02/21 08:13:59;;;;;;;2.17;2.08;;;;;;;14.29;58.66;94389.53;4971951;28;20476;-82
2022/02/21 08:16:25;;;;;;;2.13;1.90;;;;;;;14.08;60.86;94388.81;4979712;28;20104;-85
2022/02/21 08:18:51;;;;;;;2.70;1.90;;;;;;;15.04;58.97;94378.28;4972405;28;20066;-84
2022/02/21 08:21:16;;;;;;;2.25;1.95;;;;;;;14.78;57.56;94363.63;4980574;28;20034;-81
2022/02/21 08:23:42;;;;;;;2.80;1.70;;;;;;;15.97;54.43;94368.63;4971593;28;20043;-80
2022/02/21 08:26:08;;;;;;;2.25;1.60;;;;;;;15.87;54.22;94363.91;4956786;28;20022;-84
2022/02/21 08:28:33;;;;;;;3.10;2.10;;;;;;;15.02;55.71;94357.66;4969846;28;20049;-83
2022/02/21 08:30:59;;;;;;;2.67;1.77;;;;;;;15.03;56.32;94361.84;4966365;28;20031;-80
2022/02/21 08:33:24;;;;;;;2.50;2.00;;;;;;;14.11;58.21;94348.53;4970005;28;20038;-81
2022/02/21 08:35:50;;;;;;;2.65;2.05;;;;;;;15.17;55.47;94339.84;4963088;28;20793;-83
2022/02/21 08:38:15;;;;;;;2.28;1.90;;;;;;;15.59;57.22;94345.31;4968831;28;20579;-82
2022/02/21 08:40:42;;;;;;;1.92;1.80;;;;;;;16.75;53.26;94328.44;4964562;28;20034;-82
2022/02/21 08:43:08;;;;;;;2.85;2.25;;;;;;;15.21;56.73;94333.22;4983756;28;20022;-81
2022/02/21 08:45:33;;;;;;;2.83;1.95;;;;;;;15.84;55.80;94333.00;4981995;28;20547;-82
2022/02/21 08:47:58;;;;;;;3.42;3.13;;;;;;;17.62;51.34;94321.59;4982320;28;20031;-82
2022/02/21 08:50:24;;;;;;;2.20;2.00;;;;;;;17.42;52.05;94318.50;4972324;28;20088;-81
2022/02/21 08:52:49;;;;;;;2.42;2.22;;;;;;;16.61;51.99;94307.91;4964875;28;20033;-80
2022/02/21 08:55:15;;;;;;;2.50;2.20;;;;;;;16.95;52.71;94304.59;4972515;28;20026;-81
2022/02/21 08:57:42;;;;;;;2.63;1.75;;;;;;;18.37;50.94;94308.38;4962982;28;20034;-82
2022/02/21 09:00:09;;;;;;;2.50;2.00;;;;;;;17.71;50.08;94299.25;4967542;28;20622;-79
2022/02/21 09:02:35;;;;;;;2.38;2.10;;;;;;;17.96;50.73;94296.34;4975291;28;20019;-78
2022/02/21 09:05:00;;;;;;;2.05;1.80;;;;;;;18.58;49.09;94291.22;4979357;28;20037;-79
2022/02/21 09:07:27;;;;;;;4.65;2.00;;;;;;;17.99;49.38;94293.25;4975411;28;20049;-77
2022/02/21 09:09:53;;;;;;;2.15;1.95;;;;;;;18.08;51.18;94291.84;4979702;28;20030;-79
2022/02/21 09:12:19;;;;;;;4.15;2.42;;;;;;;18.44;51.91;94277.59;4959705;28;20436;-78
2022/02/21 09:14:47;;;;;;;3.10;2.17;;;;;;;18.17;52.18;94276.56;4985109;28;20018;-79
2022/02/21 09:17:14;;;;;;;2.20;2.00;;;;;;;18.48;52.32;94283.16;4986843;28;20082;-78
2022/02/21 09:19:39;;;;;;;2.60;2.40;;;;;;;17.18;54.34;94278.41;4985461;28;20030;-79
2022/02/21 09:22:05;;;;;;;3.60;2.60;;;;;;;17.78;54.09;94271.09;4986944;28;20034;-77
2022/02/21 09:24:30;;;;;;;3.80;3.10;;;;;;;19.81;48.83;94270.00;4984840;28;20521;-77
2022/02/21 09:26:56;;;;;;;3.67;3.20;;;;;;;20.29;46.86;94269.28;4986776;28;20069;-78
2022/02/21 09:29:23;;;;;;;4.45;3.30;;;;;;;21.50;45.08;94273.72;4984803;28;20031;-80
2022/02/21 09:31:48;;;;;;;4.20;3.25;;;;;;;22.64;42.23;94262.28;4985306;28;20030;-80
2022/02/21 09:34:14;;;;;;;3.78;3.35;;;;;;;23.91;40.17;94265.66;4983952;28;20022;-80
2022/02/21 09:36:39;;;;;;;5.20;4.70;;;;;;;24.12;38.53;94272.47;4985233;28;20520;-81
2022/02/21 09:39:05;;;;;;;4.40;3.38;;;;;;;25.76;37.17;94262.03;4984872;28;20042;-79
2022/02/21 09:41:30;;;;;;;4.85;3.28;;;;;;;25.78;36.33;94243.19;4984655;28;20026;-83
2022/02/21 09:43:57;;;;;;;4.30;3.40;;;;;;;25.64;35.20;94240.41;4985072;28;20587;-80
2022/02/21 09:46:28;;;;;;;3.60;3.28;;;;;;;26.03;35.44;94240.25;4983183;28;20041;-82
2022/02/21 09:48:54;;;;;;;4.43;4.00;;;;;;;20.38;45.83;94242.28;4985081;28;20034;-82
2022/02/21 09:51:20;;;;;;;4.07;3.67;;;;;;;22.71;41.92;94244.38;4983453;28;20096;-81
2022/02/21 09:53:46;;;;;;;4.68;4.28;;;;;;;24.97;37.58;94243.94;4983681;28;20032;-82
2022/02/21 09:56:11;;;;;;;7.30;6.70;;;;;;;25.86;35.58;94224.78;4984333;28;20030;-82
2022/02/21 09:58:37;;;;;;;4.45;4.15;;;;;;;23.37;38.69;94231.13;4982972;28;20473;-83
2022/02/21 10:01:03;;;;;;;3.88;3.58;;;;;;;25.77;36.26;94225.69;4986482;28;20034;-82
2022/02/21 10:03:37;;;;;;;5.03;4.63;;;;;;;25.18;37.26;94229.44;4966554;28;20038;-82
2022/02/21 10:06:26;;;;;;;12.85;11.55;;;;;;;22.57;40.95;94217.66;4985912;28;20034;-81
2022/02/21 10:09:08;;;;;;;4.13;3.72;;;;;;;23.31;40.56;94211.84;4985328;28;20065;-80
2022/02/21 10:11:59;;;;;;;4.03;3.72;;;;;;;23.37;41.80;94204.69;4981680;28;20073;-82
2022/02/21 10:14:28;;;;;;;3.70;3.38;;;;;;;24.04;39.22;94199.72;4972362;28;20030;-80
2022/02/21 10:16:58;;;;;;;3.22;2.92;;;;;;;26.60;35.16;94186.88;4970358;28;20031;-80
2022/02/21 10:19:38;;;;;;;3.95;3.55;;;;;;;22.30;40.18;94182.00;4976962;28;20417;-82
2022/02/21 10:22:11;;;;;;;4.55;3.92;;;;;;;21.11;43.40;94177.59;4977916;28;20027;-80
2022/02/21 10:24:43;;;;;;;5.18;4.72;;;;;;;19.60;49.94;94176.97;4977882;28;20037;-83
2022/02/21 10:27:10;;;;;;;4.72;4.28;;;;;;;21.41;45.83;94167.22;4970799;28;20026;-83
2022/02/21 10:29:49;;;;;;;5.93;5.43;;;;;;;23.86;39.49;94167.78;4972848;28;20527;-81
2022/02/21 10:32:19;;;;;;;5.15;4.70;;;;;;;20.40;46.00;94165.72;4971845;28;20583;-81
2022/02/21 10:34:45;;;;;;;4.93;4.53;;;;;;;17.62;54.36;94159.22;4968387;28;20026;-84
2022/02/21 10:37:13;;;;;;;4.68;4.28;;;;;;;17.92;54.22;94151.88;4974549;28;20105;-85
2022/02/21 10:39:38;;;;;;;4.18;3.83;;;;;;;17.23;54.85;94139.03;4983986;28;20026;-83
2022/02/21 10:42:07;;;;;;;6.05;5.05;;;;;;;16.94;56.78;94130.31;4980898;28;20084;-83
2022/02/21 10:44:35;;;;;;;5.88;5.25;;;;;;;16.61;59.34;94130.09;4983147;28;20046;-86
2022/02/21 10:47:11;;;;;;;5.93;5.32;;;;;;;16.58;58.50;94128.75;4982345;28;20048;-85
2022/02/21 10:49:48;;;;;;;5.18;4.68;;;;;;;17.23;56.22;94126.75;4980728;28;20034;-84
2022/02/21 10:52:17;;;;;;;5.28;4.78;;;;;;;16.30;58.93;94118.16;4976186;28;20393;-84
2022/02/21 10:54:43;;;;;;;5.67;5.10;;;;;;;16.39;61.63;94108.94;4971860;28;20612;-83
2022/02/21 10:57:10;;;;;;;5.32;4.82;;;;;;;16.84;59.30;94106.56;4974260;28;20039;-83
2022/02/21 10:59:36;;;;;;;6.55;5.78;;;;;;;17.11;56.50;94096.38;4977557;28;20030;-83
2022/02/21 11:02:02;;;;;;;6.05;5.47;;;;;;;16.53;58.79;94099.84;4974530;28;20045;-86
2022/02/21 11:04:29;;;;;;;6.65;5.32;;;;;;;16.91;57.25;94088.94;4972862;28;20031;-84
2022/02/21 11:06:56;;;;;;;6.07;5.50;;;;;;;17.11;57.26;94089.34;4979838;28;20027;-84
2022/02/21 11:09:25;;;;;;;6.55;5.80;;;;;;;16.16;59.61;94088.81;4970542;28;20482;-85
2022/02/21 11:11:52;;;;;;;8.43;6.57;;;;;;;15.89;61.88;94084.25;4982690;28;20166;-85
2022/02/21 11:14:20;;;;;;;6.18;5.63;;;;;;;16.51;59.35;94077.56;4980869;28;20058;-85
2022/02/21 11:16:47;;;;;;;7.85;7.00;;;;;;;15.64;61.06;94077.38;4966040;28;20583;-85
2022/02/21 11:19:16;;;;;;;7.15;6.55;;;;;;;16.53;57.92;94071.09;4959471;28;20496;-83
2022/02/21 11:21:44;;;;;;;7.32;6.20;;;;;;;17.10;56.49;94063.38;4974068;28;20032;-83
2022/02/21 11:24:13;;;;;;;7.00;6.18;;;;;;;17.01;57.72;94049.88;4967338;28;20057;-81